Time;durP1;ratioP1;P1;durP2;ratioP2;P2;SDS_P1;SDS_P2;PMS_P1;PMS_P2;Temp;Humidity;BMP_temperature;BMP_pressure;BME280_temperature;BME280_humidity;BME280_pressure;Samples;Min_cycle;Max_cycle;Signal;HPM_P1;HPM_P2
2022/10/13 00:01:16;;;;;;;7.43;6.70;;;23.60;83.30;;;;;;5137950;27;20435;-67
2022/10/13 00:03:47;;;;;;;7.50;6.80;;;23.60;83.00;;;;;;5126806;27;20497;-66
2022/10/13 00:06:23;;;;;;;7.33;6.63;;;23.60;82.60;;;;;;5136236;27;20450;-68
2022/10/13 00:08:55;;;;;;;10.30;6.77;;;23.50;83.00;;;;;;5128208;27;20450;-67
2022/10/13 00:11:27;;;;;;;9.73;7.23;;;23.50;83.90;;;;;;5131328;27;20536;-65
2022/10/13 00:13:59;;;;;;;8.30;7.47;;;23.40;83.80;;;;;;5124983;27;20518;-64
2022/10/13 00:16:31;;;;;;;7.47;6.73;;;23.40;83.60;;;;;;5138491;27;20678;-65
2022/10/13 00:19:02;;;;;;;9.03;6.97;;;23.30;85.20;;;;;;5140761;27;20489;-66
2022/10/13 00:21:35;;;;;;;9.37;7.97;;;23.20;84.50;;;;;;5135607;27;20478;-66
2022/10/13 00:24:10;;;;;;;7.13;6.43;;;23.20;85.70;;;;;;5127407;27;20522;-66
2022/10/13 00:26:41;;;;;;;8.47;7.40;;;23.20;86.10;;;;;;5110464;27;20437;-67
2022/10/13 00:29:12;;;;;;;8.50;7.73;;;23.10;86.50;;;;;;5132986;27;20460;-66
2022/10/13 00:31:43;;;;;;;11.13;6.70;;;23.00;88.60;;;;;;5113149;28;20454;-65
2022/10/13 00:34:13;;;;;;;8.30;6.90;;;23.00;88.40;;;;;;5117512;28;20484;-65
2022/10/13 00:36:46;;;;;;;9.10;6.57;;;22.90;88.50;;;;;;5111052;28;20510;-64
2022/10/13 00:39:17;;;;;;;7.97;7.13;;;22.80;89.10;;;;;;5117724;27;20464;-64
2022/10/13 00:41:47;;;;;;;7.10;6.40;;;22.80;90.80;;;;;;5112283;27;20484;-66
2022/10/13 00:45:09;;;;;;;7.57;6.70;;;22.70;90.40;;;;;;5115976;27;20447;-66
2022/10/13 00:47:42;;;;;;;9.37;7.07;;;22.60;90.80;;;;;;5055919;28;20482;-66
2022/10/13 00:50:18;;;;;;;9.03;7.40;;;22.50;91.10;;;;;;5064523;28;20449;-67
2022/10/13 00:52:53;;;;;;;7.30;6.50;;;22.40;91.20;;;;;;5060569;28;21014;-67
2022/10/13 00:55:27;;;;;;;8.10;6.90;;;22.30;92.00;;;;;;5067639;28;20506;-66
2022/10/13 00:58:00;;;;;;;8.73;6.80;;;22.20;92.90;;;;;;5057231;28;21041;-66
2022/10/13 01:00:34;;;;;;;9.23;7.23;;;21.90;93.60;;;;;;5057446;28;20473;-68
2022/10/13 01:03:05;;;;;;;9.00;6.70;;;21.80;94.40;;;;;;5065434;28;20998;-67
2022/10/13 01:05:37;;;;;;;9.40;7.23;;;21.70;94.20;;;;;;5057465;28;20465;-66
2022/10/13 01:08:11;;;;;;;8.80;6.93;;;21.60;94.30;;;;;;5043741;28;20531;-67
2022/10/13 01:10:52;;;;;;;9.20;7.43;;;21.50;94.70;;;;;;5055006;28;20602;-66
2022/10/13 01:13:29;;;;;;;8.20;7.07;;;21.40;95.50;;;;;;5027723;28;20437;-66
2022/10/13 01:16:06;;;;;;;8.00;7.20;;;21.30;95.60;;;;;;5037889;28;20446;-67
2022/10/13 01:18:45;;;;;;;8.80;7.10;;;21.20;95.90;;;;;;5060068;28;20418;-66
2022/10/13 01:21:26;;;;;;;8.60;6.97;;;21.10;96.50;;;;;;5074294;28;20544;-65
2022/10/13 01:24:37;;;;;;;7.47;6.67;;;20.90;97.90;;;;;;5090252;28;20473;-67
2022/10/13 01:27:46;;;;;;;9.00;6.80;;;20.80;98.50;;;;;;5076766;28;20499;-66
2022/10/13 01:30:20;;;;;;;8.53;7.60;;;20.60;99.90;;;;;;5083505;28;20443;-67
2022/10/13 01:33:15;;;;;;;7.37;6.70;;;20.40;99.90;;;;;;5075556;28;20462;-68
2022/10/13 01:36:16;;;;;;;7.53;6.63;;;20.20;99.90;;;;;;5078653;28;20467;-66
2022/10/13 01:38:54;;;;;;;8.20;6.90;;;20.00;99.90;;;;;;5079631;28;20478;-66
2022/10/13 01:41:31;;;;;;;8.40;7.10;;;19.90;99.90;;;;;;5079311;28;20454;-67
2022/10/13 01:44:08;;;;;;;8.77;7.03;;;19.80;99.90;;;;;;5071719;28;20438;-66
2022/10/13 01:46:41;;;;;;;8.43;7.53;;;19.60;99.90;;;;;;5064077;28;20434;-66
2022/10/13 01:49:15;;;;;;;9.00;7.13;;;19.50;99.90;;;;;;5087167;28;20508;-67
2022/10/13 01:51:47;;;;;;;8.30;6.97;;;19.40;99.90;;;;;;5076571;28;20496;-66
2022/10/13 01:54:18;;;;;;;8.40;7.00;;;19.30;99.90;;;;;;5072061;28;20577;-67
2022/10/13 01:56:54;;;;;;;10.53;7.37;;;19.20;99.90;;;;;;5074824;28;20498;-66
2022/10/13 01:59:26;;;;;;;13.27;8.77;;;19.10;99.90;;;;;;5070104;28;20536;-66
2022/10/13 02:02:07;;;;;;;8.73;7.83;;;19.00;99.90;;;;;;5074745;28;20455;-65
2022/10/13 02:04:48;;;;;;;9.20;8.10;;;18.90;99.90;;;;;;5087721;28;20464;-67
2022/10/13 02:07:24;;;;;;;10.50;8.57;;;18.80;99.90;;;;;;5092313;28;20495;-67
2022/10/13 02:10:03;;;;;;;10.47;8.50;;;18.80;99.90;;;;;;5118284;28;20457;-68
2022/10/13 02:12:40;;;;;;;11.17;9.57;;;18.60;99.90;;;;;;5127285;28;20500;-68
2022/10/13 02:15:17;;;;;;;10.70;9.70;;;18.50;99.90;;;;;;5119730;28;20495;-67
2022/10/13 02:17:50;;;;;;;11.77;10.23;;;18.50;99.90;;;;;;5114895;28;20461;-68
2022/10/13 02:20:22;;;;;;;11.70;9.17;;;18.50;99.90;;;;;;5121948;27;20472;-68
2022/10/13 02:22:58;;;;;;;9.23;8.30;;;18.30;99.90;;;;;;5142733;27;20561;-68
2022/10/13 02:25:30;;;;;;;11.57;8.90;;;18.30;99.90;;;;;;5128625;27;20469;-71
2022/10/13 02:28:02;;;;;;;10.67;8.90;;;18.40;99.90;;;;;;5119943;27;20450;-68
2022/10/13 02:30:33;;;;;;;10.27;8.20;;;18.40;99.90;;;;;;5136875;27;20452;-67
2022/10/13 02:33:06;;;;;;;9.20;8.30;;;18.30;99.90;;;;;;5135084;27;20455;-66
2022/10/13 02:35:37;;;;;;;9.27;8.27;;;18.20;99.90;;;;;;5134439;27;20460;-66
2022/10/13 02:38:08;;;;;;;10.67;8.57;;;18.10;99.90;;;;;;5131715;27;20517;-68
2022/10/13 02:40:38;;;;;;;10.80;8.50;;;18.00;99.90;;;;;;5132883;27;20463;-68
2022/10/13 02:43:09;;;;;;;10.90;8.40;;;17.90;99.90;;;;;;5115690;27;20473;-65
2022/10/13 02:45:40;;;;;;;11.43;8.40;;;18.00;99.90;;;;;;5121593;27;20446;-65
2022/10/13 02:48:12;;;;;;;9.97;8.20;;;17.80;99.90;;;;;;5110712;27;20433;-67
2022/10/13 02:50:43;;;;;;;9.07;7.70;;;17.70;99.90;;;;;;5117081;27;20499;-68
2022/10/13 02:53:14;;;;;;;11.13;7.97;;;17.70;99.90;;;;;;5124478;27;20479;-67
2022/10/13 02:55:45;;;;;;;12.43;8.77;;;17.60;99.90;;;;;;5137287;27;20449;-71
2022/10/13 02:58:16;;;;;;;11.07;8.80;;;17.50;99.90;;;;;;5129222;27;20453;-67
2022/10/13 03:00:46;;;;;;;9.37;7.87;;;17.40;99.90;;;;;;5135877;27;20510;-67
2022/10/13 03:03:19;;;;;;;9.80;8.77;;;17.30;99.90;;;;;;5130600;27;20457;-68
2022/10/13 03:05:49;;;;;;;13.37;9.37;;;17.30;99.90;;;;;;5130383;27;20452;-68
2022/10/13 03:08:21;;;;;;;9.67;8.50;;;17.20;99.90;;;;;;5144745;27;20537;-68
2022/10/13 03:10:52;;;;;;;11.90;9.33;;;17.20;99.90;;;;;;5138187;27;20453;-68
2022/10/13 03:13:23;;;;;;;11.63;8.50;;;17.20;99.90;;;;;;5131097;27;20449;-67
2022/10/13 03:15:54;;;;;;;10.23;7.80;;;17.10;99.90;;;;;;5118249;27;20458;-70
2022/10/13 03:18:26;;;;;;;10.87;7.93;;;17.00;99.90;;;;;;5124697;27;20452;-68
2022/10/13 03:20:58;;;;;;;10.30;8.07;;;16.90;99.90;;;;;;5121891;27;20554;-67
2022/10/13 03:23:29;;;;;;;9.47;8.20;;;16.90;99.90;;;;;;5137878;27;20452;-73
2022/10/13 03:26:00;;;;;;;9.00;8.10;;;16.90;99.90;;;;;;5129699;27;20517;-67
2022/10/13 03:28:31;;;;;;;9.07;7.37;;;16.80;99.90;;;;;;5145177;27;20497;-68
2022/10/13 03:31:03;;;;;;;10.43;8.83;;;16.70;99.90;;;;;;5124519;27;20453;-69
2022/10/13 03:33:35;;;;;;;13.50;8.57;;;16.60;99.90;;;;;;5138519;27;20781;-67
2022/10/13 03:36:08;;;;;;;9.07;7.87;;;16.60;99.90;;;;;;5134479;27;20841;-67
2022/10/13 03:38:38;;;;;;;9.97;8.30;;;16.60;99.90;;;;;;5126495;27;20546;-67
2022/10/13 03:41:12;;;;;;;9.27;8.20;;;16.50;99.90;;;;;;5114005;27;20553;-67
2022/10/13 03:43:44;;;;;;;8.63;7.83;;;16.50;99.90;;;;;;5126684;27;20529;-66
2022/10/13 03:46:16;;;;;;;13.90;8.90;;;16.40;99.90;;;;;;5139724;27;20847;-67
2022/10/13 03:48:49;;;;;;;9.20;8.00;;;16.40;99.90;;;;;;5128035;27;20511;-67
2022/10/13 03:51:21;;;;;;;11.63;8.70;;;16.30;99.90;;;;;;5120862;27;20454;-67
2022/10/13 03:53:53;;;;;;;12.13;8.70;;;16.30;99.90;;;;;;5109400;27;20451;-69
2022/10/13 03:56:26;;;;;;;11.47;8.40;;;16.20;99.90;;;;;;5118443;27;20969;-67
2022/10/13 03:59:00;;;;;;;11.40;8.40;;;16.10;99.90;;;;;;5121208;27;20440;-67
2022/10/13 04:01:32;;;;;;;9.20;8.20;;;16.10;99.90;;;;;;5128688;27;21025;-67
2022/10/13 04:04:06;;;;;;;9.70;8.23;;;16.10;99.90;;;;;;5130090;27;20461;-67
2022/10/13 04:06:37;;;;;;;9.63;8.70;;;16.00;99.90;;;;;;5110120;27;20530;-68
2022/10/13 04:09:08;;;;;;;12.97;8.60;;;16.10;99.90;;;;;;5116008;27;20458;-67
2022/10/13 04:11:39;;;;;;;9.60;7.67;;;16.10;99.90;;;;;;5142355;27;20505;-67
2022/10/13 04:14:09;;;;;;;8.03;7.17;;;16.10;99.90;;;;;;5124306;27;20533;-67
2022/10/13 04:16:40;;;;;;;9.53;8.10;;;15.90;99.90;;;;;;5125078;27;20453;-67
2022/10/13 04:19:15;;;;;;;11.07;7.33;;;15.90;99.90;;;;;;5117561;27;20479;-68
2022/10/13 04:21:46;;;;;;;11.03;8.47;;;15.80;99.90;;;;;;5127366;27;20551;-68
2022/10/13 04:24:18;;;;;;;10.10;8.30;;;15.80;99.90;;;;;;5127679;27;20469;-68
2022/10/13 04:26:48;;;;;;;8.73;7.90;;;15.70;99.90;;;;;;5108033;28;20458;-67
2022/10/13 04:29:19;;;;;;;7.90;6.83;;;15.70;99.90;;;;;;5141771;27;20474;-68
2022/10/13 04:31:50;;;;;;;9.50;7.10;;;15.60;99.90;;;;;;5130131;27;20460;-68
2022/10/13 04:34:22;;;;;;;8.57;7.00;;;15.50;99.90;;;;;;5143830;27;20483;-68
2022/10/13 04:36:53;;;;;;;9.60;7.63;;;15.50;99.90;;;;;;5120807;27;20487;-68
2022/10/13 04:39:24;;;;;;;9.40;7.97;;;15.50;99.90;;;;;;5140964;27;20473;-68
2022/10/13 04:41:55;;;;;;;7.83;6.40;;;15.50;99.90;;;;;;5118455;27;20490;-67
2022/10/13 04:44:26;;;;;;;8.70;7.40;;;15.50;99.90;;;;;;5130719;27;20524;-68
2022/10/13 04:46:56;;;;;;;8.30;7.50;;;15.50;99.90;;;;;;5120443;27;20456;-67
2022/10/13 04:49:29;;;;;;;7.10;6.40;;;15.50;99.90;;;;;;5129753;27;20493;-70
2022/10/13 04:52:00;;;;;;;8.07;6.63;;;15.40;99.90;;;;;;5109149;28;20515;-71
2022/10/13 04:54:30;;;;;;;8.27;6.27;;;15.30;99.90;;;;;;5134016;27;20467;-68
2022/10/13 04:57:01;;;;;;;8.27;6.10;;;15.30;99.90;;;;;;5109000;27;20458;-66
2022/10/13 04:59:32;;;;;;;11.10;6.70;;;15.30;99.90;;;;;;5132492;27;20953;-67
2022/10/13 05:02:03;;;;;;;10.20;7.10;;;15.20;99.90;;;;;;5111532;27;20492;-69
2022/10/13 05:04:35;;;;;;;9.30;6.20;;;15.10;99.90;;;;;;5119551;27;20522;-72
2022/10/13 05:07:06;;;;;;;7.13;6.43;;;15.10;99.90;;;;;;5118418;27;20500;-68
2022/10/13 05:09:52;;;;;;;7.20;6.10;;;15.10;99.90;;;;;;5143580;27;20449;-69
2022/10/13 05:12:23;;;;;;;6.50;5.23;;;15.10;99.90;;;;;;5121111;27;20505;-69
2022/10/13 05:14:54;;;;;;;8.63;6.37;;;15.10;99.90;;;;;;5135283;27;20632;-68
2022/10/13 05:17:25;;;;;;;7.33;6.50;;;15.00;99.90;;;;;;5115747;27;20503;-68
2022/10/13 05:20:00;;;;;;;7.57;5.37;;;15.00;99.90;;;;;;5143465;27;20473;-67
2022/10/13 05:22:30;;;;;;;7.10;5.90;;;15.00;99.90;;;;;;5122451;27;20548;-68
2022/10/13 05:25:01;;;;;;;5.90;5.30;;;14.90;99.90;;;;;;5131023;27;20457;-68
2022/10/13 05:27:32;;;;;;;7.00;5.17;;;14.90;99.90;;;;;;5129440;27;20458;-67
2022/10/13 05:30:03;;;;;;;7.47;5.40;;;14.90;99.90;;;;;;5116946;27;20458;-67
2022/10/13 05:32:36;;;;;;;8.03;6.10;;;14.90;99.90;;;;;;5125180;27;20463;-67
2022/10/13 05:35:09;;;;;;;6.67;5.27;;;14.90;99.90;;;;;;5126029;28;20441;-67
2022/10/13 05:37:40;;;;;;;10.43;6.70;;;14.90;99.90;;;;;;5135489;27;20469;-68
2022/10/13 05:40:12;;;;;;;6.80;4.90;;;14.90;99.90;;;;;;5134405;28;20449;-67
2022/10/13 05:42:42;;;;;;;5.40;4.23;;;14.90;99.90;;;;;;5125623;27;20492;-67
2022/10/13 05:45:14;;;;;;;6.20;5.30;;;14.90;99.90;;;;;;5130959;27;20452;-67
2022/10/13 05:47:44;;;;;;;6.93;4.60;;;14.90;99.90;;;;;;5134165;27;20797;-67
2022/10/13 05:50:17;;;;;;;5.70;4.20;;;14.90;99.90;;;;;;5137260;28;20529;-66
2022/10/13 05:52:48;;;;;;;8.10;4.83;;;14.90;99.90;;;;;;5126298;28;20461;-67
2022/10/13 05:55:19;;;;;;;6.50;4.90;;;14.90;99.90;;;;;;5133426;27;20521;-67
2022/10/13 05:57:52;;;;;;;7.47;5.30;;;14.90;99.90;;;;;;5124970;27;21155;-67
2022/10/13 06:00:23;;;;;;;8.20;4.70;;;14.80;99.90;;;;;;5123813;27;20460;-67
2022/10/13 06:02:58;;;;;;;6.23;5.50;;;14.80;99.90;;;;;;5129024;27;20488;-67
2022/10/13 06:05:32;;;;;;;6.70;4.60;;;14.80;99.90;;;;;;5142579;27;20448;-67
2022/10/13 06:08:03;;;;;;;6.80;5.47;;;14.70;99.90;;;;;;5141332;27;20468;-67
2022/10/13 06:10:34;;;;;;;6.83;5.00;;;14.70;99.90;;;;;;5132911;27;20526;-67
2022/10/13 06:13:04;;;;;;;7.40;5.77;;;14.70;99.90;;;;;;5131837;27;20968;-67
2022/10/13 06:15:35;;;;;;;6.83;5.03;;;14.70;99.90;;;;;;5119721;27;21039;-67
2022/10/13 06:18:09;;;;;;;7.33;5.70;;;14.60;99.90;;;;;;5131912;27;20968;-68
2022/10/13 06:20:42;;;;;;;8.30;4.37;;;14.60;99.90;;;;;;5118582;27;20583;-67
2022/10/13 06:23:12;;;;;;;5.90;5.30;;;14.60;99.90;;;;;;5134131;27;20483;-67
2022/10/13 06:25:48;;;;;;;9.23;5.40;;;14.60;99.90;;;;;;5143687;27;20506;-68
2022/10/13 06:28:19;;;;;;;6.87;5.43;;;14.50;99.90;;;;;;5126316;27;20457;-69
2022/10/13 06:30:55;;;;;;;5.20;4.70;;;14.50;99.90;;;;;;5135213;27;20456;-69
2022/10/13 06:33:26;;;;;;;10.63;4.97;;;14.40;99.90;;;;;;5140745;27;20486;-69
2022/10/13 06:36:02;;;;;;;6.73;5.23;;;14.40;99.90;;;;;;5127589;27;20463;-68
2022/10/13 06:38:34;;;;;;;5.90;5.00;;;14.30;99.90;;;;;;5132896;27;20457;-68
2022/10/13 06:41:06;;;;;;;7.33;6.03;;;14.30;99.90;;;;;;5131521;27;20477;-68
2022/10/13 06:43:36;;;;;;;9.20;4.90;;;14.30;99.90;;;;;;5137068;27;20541;-68
2022/10/13 06:46:09;;;;;;;5.53;4.73;;;14.30;99.90;;;;;;5131589;27;20526;-68
2022/10/13 06:48:40;;;;;;;7.37;5.80;;;14.30;99.90;;;;;;5113487;27;20460;-68
2022/10/13 06:51:13;;;;;;;9.03;5.47;;;14.20;99.90;;;;;;5116849;27;20957;-68
2022/10/13 06:53:44;;;;;;;9.37;5.27;;;14.10;99.90;;;;;;5123163;27;20485;-68
2022/10/13 06:56:15;;;;;;;8.20;5.17;;;14.10;99.90;;;;;;5145536;27;20452;-68
2022/10/13 06:58:47;;;;;;;7.70;5.50;;;14.10;99.90;;;;;;5116456;27;20448;-67
2022/10/13 07:01:17;;;;;;;5.83;5.23;;;14.00;99.90;;;;;;5138038;27;20444;-67
2022/10/13 07:03:50;;;;;;;8.20;6.07;;;14.00;99.90;;;;;;5122670;27;20489;-68
2022/10/13 07:06:22;;;;;;;6.97;5.30;;;14.00;99.90;;;;;;5128001;27;20514;-68
2022/10/13 07:08:53;;;;;;;12.23;6.00;;;14.00;99.90;;;;;;5142844;27;20461;-68
2022/10/13 07:11:24;;;;;;;9.87;6.67;;;13.90;99.90;;;;;;5145506;27;20887;-68
2022/10/13 07:13:56;;;;;;;11.17;6.87;;;13.90;99.90;;;;;;5143054;27;20441;-68
2022/10/13 07:16:26;;;;;;;7.63;6.70;;;13.90;99.90;;;;;;5139633;27;20516;-68
2022/10/13 07:18:57;;;;;;;8.30;6.23;;;13.80;99.90;;;;;;5131474;27;20465;-67
2022/10/13 07:21:30;;;;;;;6.60;5.67;;;13.80;99.90;;;;;;5120619;27;20511;-67
2022/10/13 07:24:02;;;;;;;7.90;6.07;;;13.80;99.90;;;;;;5137974;27;20488;-67
2022/10/13 07:26:34;;;;;;;7.83;5.67;;;13.80;99.90;;;;;;5137627;27;20453;-68
2022/10/13 07:29:04;;;;;;;11.77;6.57;;;13.80;99.90;;;;;;5141488;27;20471;-68
2022/10/13 07:31:35;;;;;;;9.33;6.17;;;13.90;99.90;;;;;;5121956;27;20536;-68
2022/10/13 07:34:07;;;;;;;8.80;7.87;;;13.90;99.90;;;;;;5137444;27;20461;-68
2022/10/13 07:36:40;;;;;;;9.00;7.47;;;13.90;99.90;;;;;;5133049;27;20517;-68
2022/10/13 07:39:11;;;;;;;10.80;6.80;;;13.80;99.90;;;;;;5118284;27;20580;-67
2022/10/13 07:41:42;;;;;;;9.30;6.63;;;13.70;99.90;;;;;;5121169;27;20449;-68
2022/10/13 07:44:19;;;;;;;10.63;7.03;;;13.70;99.90;;;;;;5129814;27;20575;-68
2022/10/13 07:46:50;;;;;;;15.10;7.30;;;13.70;99.90;;;;;;5132846;27;20440;-68
2022/10/13 07:49:21;;;;;;;8.60;6.97;;;13.60;99.90;;;;;;5135605;27;20956;-68
2022/10/13 07:51:54;;;;;;;14.10;8.63;;;13.60;99.90;;;;;;5130758;27;20515;-68
2022/10/13 07:54:24;;;;;;;11.27;8.50;;;13.60;99.90;;;;;;5122896;27;20462;-68
2022/10/13 07:56:56;;;;;;;13.60;9.20;;;13.60;99.90;;;;;;5119885;28;20458;-68
2022/10/13 07:59:28;;;;;;;11.13;8.50;;;13.60;99.90;;;;;;5131452;27;20518;-67
2022/10/13 08:01:59;;;;;;;10.00;7.90;;;13.60;99.90;;;;;;5132875;27;20548;-68
2022/10/13 08:04:31;;;;;;;12.30;9.53;;;13.70;99.90;;;;;;5134831;27;20522;-68
2022/10/13 08:07:04;;;;;;;13.57;9.60;;;13.60;99.90;;;;;;5121686;27;20540;-68
2022/10/13 08:09:35;;;;;;;12.37;8.97;;;13.60;99.90;;;;;;5131336;27;20465;-68
2022/10/13 08:12:06;;;;;;;14.00;8.33;;;13.60;99.90;;;;;;5131766;27;20453;-67
2022/10/13 08:14:37;;;;;;;14.87;9.83;;;13.60;99.90;;;;;;5126127;27;20462;-68
2022/10/13 08:17:08;;;;;;;14.80;10.03;;;13.60;99.90;;;;;;5140834;27;20505;-68
2022/10/13 08:19:39;;;;;;;13.63;9.50;;;13.50;99.90;;;;;;5131134;27;20484;-68
2022/10/13 08:22:13;;;;;;;13.23;9.10;;;13.50;99.90;;;;;;5137318;27;20453;-68
2022/10/13 08:24:44;;;;;;;18.67;10.60;;;13.50;99.90;;;;;;5138811;27;20485;-68
2022/10/13 08:27:21;;;;;;;14.73;11.00;;;13.50;99.90;;;;;;5130745;27;20453;-68
2022/10/13 08:29:53;;;;;;;13.93;9.13;;;13.50;99.90;;;;;;5132702;27;20539;-68
2022/10/13 08:32:24;;;;;;;14.07;10.57;;;13.40;99.90;;;;;;5120856;27;20507;-68
2022/10/13 08:34:55;;;;;;;15.90;10.73;;;13.50;99.90;;;;;;5132363;27;20481;-68
2022/10/13 08:37:27;;;;;;;14.07;10.33;;;13.40;99.90;;;;;;5130359;27;20483;-68
2022/10/13 08:39:58;;;;;;;15.97;10.60;;;13.40;99.90;;;;;;5125528;27;20461;-68
2022/10/13 08:42:29;;;;;;;14.27;9.87;;;13.40;99.90;;;;;;5121863;27;20523;-68
2022/10/13 08:45:03;;;;;;;15.80;9.90;;;13.40;99.90;;;;;;5123575;27;20543;-68
2022/10/13 08:47:58;;;;;;;17.00;10.13;;;13.40;99.90;;;;;;5126002;27;20441;-68
2022/10/13 08:50:34;;;;;;;16.80;11.37;;;13.40;99.90;;;;;;5135566;27;20486;-67
2022/10/13 08:53:12;;;;;;;14.53;10.33;;;13.40;99.90;;;;;;5133263;27;20468;-68
2022/10/13 08:55:48;;;;;;;16.77;10.43;;;13.40;99.90;;;;;;5140524;27;20513;-68
2022/10/13 08:58:23;;;;;;;18.60;12.57;;;13.30;99.90;;;;;;5134544;27;20797;-68
2022/10/13 09:01:06;;;;;;;16.10;11.03;;;13.30;99.90;;;;;;5138859;27;20444;-68
2022/10/13 09:03:50;;;;;;;15.37;10.73;;;13.30;99.90;;;;;;5121105;27;20493;-68
2022/10/13 09:06:27;;;;;;;15.03;11.20;;;13.30;99.90;;;;;;5134541;27;20497;-68
2022/10/13 09:09:01;;;;;;;20.13;10.60;;;13.30;99.90;;;;;;5129211;27;20456;-68
2022/10/13 09:11:34;;;;;;;14.30;10.60;;;13.30;99.90;;;;;;5133761;27;20508;-68
2022/10/13 09:14:07;;;;;;;15.97;11.37;;;13.30;99.90;;;;;;5140673;27;20448;-68
2022/10/13 09:16:40;;;;;;;17.50;12.53;;;13.30;99.90;;;;;;5114413;27;20531;-68
2022/10/13 09:19:18;;;;;;;19.63;12.10;;;13.30;99.90;;;;;;5139105;27;20498;-68
2022/10/13 09:21:49;;;;;;;15.90;11.67;;;13.20;99.90;;;;;;5120005;27;20452;-68
2022/10/13 09:24:23;;;;;;;17.50;11.43;;;13.20;99.90;;;;;;5117253;27;20492;-68
2022/10/13 09:27:07;;;;;;;15.57;10.53;;;13.20;99.90;;;;;;5132150;27;20458;-68
2022/10/13 09:29:38;;;;;;;17.37;11.90;;;13.20;99.90;;;;;;5134946;27;20521;-68
2022/10/13 09:32:18;;;;;;;14.80;11.47;;;13.10;99.90;;;;;;5141573;27;20445;-68
2022/10/13 09:34:50;;;;;;;17.40;13.57;;;13.10;99.90;;;;;;5123826;27;20480;-68
2022/10/13 09:37:23;;;;;;;18.20;11.60;;;13.10;99.90;;;;;;5129839;27;20461;-68
2022/10/13 09:40:17;;;;;;;16.47;11.23;;;13.10;99.90;;;;;;5123963;27;20484;-68
2022/10/13 09:42:52;;;;;;;21.67;12.47;;;13.00;99.90;;;;;;5127482;27;20457;-68
2022/10/13 09:45:25;;;;;;;17.27;11.33;;;13.00;99.90;;;;;;5134143;27;20842;-67
2022/10/13 09:47:58;;;;;;;14.87;10.10;;;13.00;99.90;;;;;;5137865;28;20501;-68
2022/10/13 09:50:30;;;;;;;19.00;12.53;;;13.00;99.90;;;;;;5136569;28;20457;-68
2022/10/13 09:53:18;;;;;;;16.23;10.80;;;13.00;99.90;;;;;;5131896;27;20468;-68
2022/10/13 09:56:07;;;;;;;18.43;12.77;;;13.00;99.90;;;;;;5123581;28;20473;-68
2022/10/13 09:58:41;;;;;;;19.53;12.80;;;12.90;99.90;;;;;;5134189;28;20502;-68
2022/10/13 10:01:22;;;;;;;17.13;11.90;;;12.90;99.90;;;;;;5128706;27;20456;-68
2022/10/13 10:03:54;;;;;;;19.00;11.30;;;12.90;99.90;;;;;;5114391;28;20458;-67
2022/10/13 10:06:25;;;;;;;19.33;13.00;;;12.90;99.90;;;;;;5135232;28;20461;-68
2022/10/13 10:09:02;;;;;;;19.57;12.70;;;12.80;99.90;;;;;;5136714;27;20573;-68
2022/10/13 10:11:41;;;;;;;18.73;12.80;;;12.80;99.90;;;;;;5121908;28;20869;-67
2022/10/13 10:14:26;;;;;;;19.00;12.70;;;12.80;99.90;;;;;;5133773;28;20519;-68
2022/10/13 10:17:03;;;;;;;19.87;12.90;;;13.00;99.90;;;;;;5132231;28;20491;-67
2022/10/13 10:19:48;;;;;;;17.30;12.70;;;13.00;99.90;;;;;;5136023;27;20453;-68
2022/10/13 10:22:26;;;;;;;20.10;13.00;;;13.00;99.90;;;;;;5134448;27;20477;-68
2022/10/13 10:25:10;;;;;;;15.30;12.07;;;13.00;99.90;;;;;;5129526;27;20564;-67
2022/10/13 10:27:45;;;;;;;19.83;13.00;;;12.90;99.90;;;;;;5122490;28;21042;-68
2022/10/13 10:30:17;;;;;;;21.97;12.70;;;12.90;99.90;;;;;;5121008;27;20568;-67
2022/10/13 10:32:54;;;;;;;16.17;12.97;;;12.80;99.90;;;;;;5129794;28;20495;-68
2022/10/13 10:35:39;;;;;;;15.47;11.60;;;12.80;99.90;;;;;;5123591;28;20499;-68
2022/10/13 10:38:23;;;;;;;14.87;12.00;;;12.80;99.90;;;;;;5117103;28;20454;-68
2022/10/13 10:41:04;;;;;;;19.03;13.70;;;12.80;99.90;;;;;;5131614;27;20448;-68
2022/10/13 10:43:51;;;;;;;19.90;12.20;;;12.70;99.90;;;;;;5134193;27;20591;-68
2022/10/13 10:46:26;;;;;;;18.93;12.40;;;12.80;99.90;;;;;;5124286;27;20469;-68
2022/10/13 10:49:01;;;;;;;20.90;14.57;;;12.80;99.90;;;;;;5134102;27;20577;-68
2022/10/13 10:51:36;;;;;;;20.93;12.97;;;12.80;99.90;;;;;;5132025;27;20453;-68
2022/10/13 10:54:26;;;;;;;19.33;12.30;;;12.70;99.90;;;;;;5116911;27;20507;-68
2022/10/13 10:57:02;;;;;;;17.23;12.77;;;12.70;99.90;;;;;;5113938;27;20525;-68
2022/10/13 10:59:50;;;;;;;20.33;14.10;;;12.70;99.90;;;;;;5136729;27;20536;-68
2022/10/13 11:02:44;;;;;;;21.40;13.40;;;12.80;99.90;;;;;;5122466;27;20488;-68
2022/10/13 11:05:17;;;;;;;19.40;14.17;;;12.80;99.90;;;;;;5144110;27;20480;-68
2022/10/13 11:07:59;;;;;;;18.53;12.37;;;12.70;99.90;;;;;;5131971;27;20917;-68
2022/10/13 11:10:30;;;;;;;19.80;13.17;;;12.70;99.90;;;;;;5136154;27;20461;-67
2022/10/13 11:13:21;;;;;;;20.10;13.30;;;12.70;99.90;;;;;;5134576;27;20794;-67
2022/10/13 11:15:55;;;;;;;19.47;12.93;;;12.70;99.90;;;;;;5140228;27;20470;-68
2022/10/13 11:19:04;;;;;;;18.50;13.23;;;12.60;99.90;;;;;;5131739;27;20526;-68
2022/10/13 11:22:18;;;;;;;18.93;12.70;;;12.60;99.90;;;;;;5122247;27;20490;-68
2022/10/13 11:25:24;;;;;;;18.83;12.80;;;12.60;99.90;;;;;;5047804;28;20531;-67
2022/10/13 11:27:55;;;;;;;19.13;13.43;;;12.60;99.90;;;;;;5067511;28;20552;-67
2022/10/13 11:30:46;;;;;;;21.93;14.30;;;12.50;99.90;;;;;;5068486;28;20521;-67
2022/10/13 11:33:56;;;;;;;20.67;14.57;;;12.50;99.90;;;;;;5065887;28;20455;-68
2022/10/13 11:36:57;;;;;;;21.07;13.47;;;12.40;99.90;;;;;;5046105;28;20469;-68
2022/10/13 11:40:02;;;;;;;18.07;11.67;;;12.40;99.90;;;;;;5063706;28;20474;-67
2022/10/13 11:42:45;;;;;;;19.30;13.00;;;12.40;99.90;;;;;;5059196;28;20460;-68
2022/10/13 11:45:37;;;;;;;19.00;13.10;;;12.30;99.90;;;;;;5058806;28;20488;-68
2022/10/13 11:48:50;;;;;;;20.27;12.40;;;12.30;99.90;;;;;;5054440;28;20498;-68
2022/10/13 11:51:33;;;;;;;18.60;12.60;;;12.30;99.90;;;;;;5041364;28;20479;-68
2022/10/13 11:54:15;;;;;;;20.20;14.13;;;12.30;99.90;;;;;;5064831;28;20443;-68
2022/10/13 11:56:48;;;;;;;19.40;13.20;;;12.30;99.90;;;;;;5078153;28;20452;-68
2022/10/13 11:59:25;;;;;;;15.53;12.80;;;12.20;99.90;;;;;;5104559;27;20437;-67
2022/10/13 12:01:58;;;;;;;20.93;12.73;;;12.40;99.90;;;;;;5127345;27;20492;-68
2022/10/13 12:04:29;;;;;;;20.40;14.07;;;12.40;99.90;;;;;;5144856;27;20445;-68
2022/10/13 12:07:10;;;;;;;23.30;13.47;;;12.30;99.90;;;;;;5143992;27;20484;-68
2022/10/13 12:09:50;;;;;;;17.47;13.23;;;12.30;99.90;;;;;;5126980;27;20547;-68
2022/10/13 12:12:22;;;;;;;21.57;13.63;;;12.20;99.90;;;;;;5127572;27;20835;-68
2022/10/13 12:14:55;;;;;;;21.50;14.53;;;12.20;99.90;;;;;;5137206;27;20916;-68
2022/10/13 12:17:34;;;;;;;20.90;13.77;;;12.20;99.90;;;;;;5116269;27;20525;-68
2022/10/13 12:20:22;;;;;;;21.60;15.13;;;12.20;99.90;;;;;;5116583;27;20512;-68
2022/10/13 12:22:55;;;;;;;17.33;11.60;;;12.10;99.90;;;;;;5138169;27;21041;-68
2022/10/13 12:25:28;;;;;;;18.10;13.10;;;12.10;99.90;;;;;;5142182;27;20556;-68
2022/10/13 12:28:01;;;;;;;18.00;13.87;;;12.10;99.90;;;;;;5141252;27;20464;-67
2022/10/13 12:30:35;;;;;;;19.90;14.17;;;12.10;99.90;;;;;;5136917;27;20484;-67
2022/10/13 12:33:23;;;;;;;24.10;14.50;;;12.20;99.90;;;;;;5142300;27;20445;-68
2022/10/13 12:35:54;;;;;;;19.20;14.40;;;12.20;99.90;;;;;;5132318;27;20463;-68
2022/10/13 12:38:26;;;;;;;20.20;12.50;;;12.30;99.90;;;;;;5104581;27;20503;-68
2022/10/13 12:40:57;;;;;;;24.93;14.57;;;12.20;99.90;;;;;;5113475;27;20485;-68
2022/10/13 12:43:28;;;;;;;19.90;13.30;;;12.30;99.90;;;;;;5134560;27;20452;-68
2022/10/13 12:45:59;;;;;;;19.77;13.17;;;12.20;99.90;;;;;;5138212;27;20481;-68
2022/10/13 12:48:35;;;;;;;22.67;15.83;;;12.20;99.90;;;;;;5114024;27;20573;-68
2022/10/13 12:51:25;;;;;;;21.90;15.20;;;12.10;99.90;;;;;;5133627;27;20464;-68
2022/10/13 12:53:58;;;;;;;20.40;14.20;;;12.00;99.90;;;;;;5131738;27;20461;-68
2022/10/13 12:56:31;;;;;;;17.50;12.67;;;12.00;99.90;;;;;;5117976;27;20978;-68
2022/10/13 12:59:02;;;;;;;19.50;14.50;;;12.00;99.90;;;;;;5138398;27;20630;-68
2022/10/13 13:01:34;;;;;;;21.13;15.27;;;12.00;99.90;;;;;;5123295;27;20462;-68
2022/10/13 13:04:18;;;;;;;19.60;14.00;;;12.00;99.90;;;;;;5128815;27;20456;-68
2022/10/13 13:06:56;;;;;;;21.93;14.63;;;12.00;99.90;;;;;;5133191;27;20490;-68
2022/10/13 13:09:30;;;;;;;20.57;13.53;;;12.00;99.90;;;;;;5135309;27;20528;-67
2022/10/13 13:12:21;;;;;;;20.70;14.23;;;11.90;99.90;;;;;;5126610;27;20465;-68
2022/10/13 13:14:53;;;;;;;21.70;13.90;;;11.90;99.90;;;;;;5114085;27;20525;-68
2022/10/13 13:17:27;;;;;;;19.90;14.57;;;11.90;99.90;;;;;;5116073;27;20995;-68
2022/10/13 13:20:23;;;;;;;17.60;12.73;;;11.90;99.90;;;;;;5136973;27;20852;-68